Airport View

Enter AWOS ICAO identifier for current METAR.

ex. KFNL

KBWD 262135Z AUTO 36012G23KT 10SM CLR 09/M09 A3042 RMK AO1

26 Feb 2020 21:41

Frequency: 118.325

Phone: 888-297-9399

Other Area AWOS: KMKN - KCOM - KGZN - KETN

TAF KBBD 261740Z 2618/2718 33015G25KT P6SM SCT035 FM262200 33011KT P6SM SKC FM270300 VRB05KT P6SM SKC FM271500 20007KT P6SM SKC